Time;durP1;ratioP1;P1;durP2;ratioP2;P2;SDS_P1;SDS_P2;PMS_P1;PMS_P2;Temp;Humidity;BMP_temperature;BMP_pressure;BME280_temperature;BME280_humidity;BME280_pressure;Samples;Min_cycle;Max_cycle;Signal;HPM_P1;HPM_P2
2022/03/09 00:02:16;;;;;;;20.83;8.73;;;;;;;0.96;61.10;102085.13;5068579;28;20087;-75
2022/03/09 00:04:41;;;;;;;18.10;7.85;;;;;;;0.97;61.42;102091.19;5069933;28;20039;-75
2022/03/09 00:07:07;;;;;;;15.57;7.82;;;;;;;0.97;60.75;102085.94;5069379;28;20499;-75
2022/03/09 00:09:32;;;;;;;18.33;8.20;;;;;;;0.98;61.00;102080.59;5069772;28;20115;-75
2022/03/09 00:11:58;;;;;;;17.75;8.07;;;;;;;0.97;60.84;102078.06;5069329;28;20531;-75
2022/03/09 00:14:23;;;;;;;16.52;8.88;;;;;;;1.02;61.01;102095.22;5069920;28;20041;-75
2022/03/09 00:16:50;;;;;;;15.82;8.23;;;;;;;0.98;61.63;102091.09;5069553;28;20960;-74
2022/03/09 00:19:16;;;;;;;14.48;7.05;;;;;;;0.84;61.38;102081.53;5069718;28;20106;-74
2022/03/09 00:21:41;;;;;;;16.63;7.95;;;;;;;0.88;62.08;102087.41;5069447;28;20062;-74
2022/03/09 00:24:07;;;;;;;23.45;9.90;;;;;;;0.89;61.88;102096.97;5069612;28;20058;-74
2022/03/09 00:26:32;;;;;;;19.00;9.50;;;;;;;0.89;61.93;102104.84;5068343;28;20036;-74
2022/03/09 00:28:57;;;;;;;18.50;7.32;;;;;;;0.86;62.39;102103.28;5069635;28;20438;-74
2022/03/09 00:31:23;;;;;;;17.13;7.65;;;;;;;0.80;62.62;102101.06;5069493;28;20043;-74
2022/03/09 00:33:48;;;;;;;18.40;7.07;;;;;;;0.79;61.89;102101.19;5069320;28;20508;-74
2022/03/09 00:36:14;;;;;;;18.95;8.38;;;;;;;0.78;62.46;102104.72;5069651;28;20036;-74
2022/03/09 00:38:39;;;;;;;20.13;7.68;;;;;;;0.72;62.27;102097.28;5069293;28;20552;-74
2022/03/09 00:41:04;;;;;;;16.95;7.20;;;;;;;0.75;62.25;102092.66;5070117;28;20518;-74
2022/03/09 00:43:30;;;;;;;16.92;7.63;;;;;;;0.74;61.72;102092.75;5069362;28;20488;-74
2022/03/09 00:45:55;;;;;;;18.08;7.40;;;;;;;0.76;62.11;102094.34;5069345;28;20122;-74
2022/03/09 00:48:21;;;;;;;18.45;7.88;;;;;;;0.78;62.21;102096.84;5069335;28;20170;-74
2022/03/09 00:50:47;;;;;;;19.13;8.60;;;;;;;0.79;61.96;102096.75;5068848;28;20085;-74
2022/03/09 00:53:12;;;;;;;22.10;9.02;;;;;;;0.78;62.17;102091.59;5069433;28;20028;-74
2022/03/09 00:55:39;;;;;;;15.30;6.65;;;;;;;0.75;62.00;102092.66;5067473;28;20557;-74
2022/03/09 00:58:04;;;;;;;18.48;7.55;;;;;;;0.68;62.37;102082.66;5069329;28;20089;-74
2022/03/09 01:00:30;;;;;;;17.23;6.60;;;;;;;0.65;63.13;102092.44;5069365;28;20024;-74
2022/03/09 01:02:55;;;;;;;19.02;7.75;;;;;;;0.58;62.70;102093.78;5069333;28;20480;-74
2022/03/09 01:05:20;;;;;;;20.63;7.70;;;;;;;0.56;63.31;102105.31;5069260;28;20109;-74
2022/03/09 01:07:46;;;;;;;17.13;7.70;;;;;;;0.48;63.03;102104.97;5073169;28;20036;-74
2022/03/09 01:10:12;;;;;;;14.85;6.20;;;;;;;0.46;63.57;102112.09;5072992;28;20067;-74
2022/03/09 01:12:38;;;;;;;13.57;6.15;;;;;;;0.39;63.44;102104.63;5072909;28;20035;-74
2022/03/09 01:15:04;;;;;;;17.58;8.13;;;;;;;0.42;63.34;102101.81;5072766;28;20033;-74
2022/03/09 01:17:29;;;;;;;19.27;8.15;;;;;;;0.40;63.55;102097.59;5072940;28;20040;-74
2022/03/09 01:19:55;;;;;;;18.17;8.30;;;;;;;0.39;62.89;102099.38;5072752;28;20050;-74
2022/03/09 01:22:20;;;;;;;17.15;7.68;;;;;;;0.41;63.11;102094.84;5072905;28;20115;-74
2022/03/09 01:24:47;;;;;;;18.58;8.00;;;;;;;0.39;63.59;102096.75;5072627;28;20043;-74
2022/03/09 01:27:12;;;;;;;23.65;7.32;;;;;;;0.37;63.87;102096.00;5072519;28;20023;-74
2022/03/09 01:29:38;;;;;;;18.33;7.43;;;;;;;0.35;63.78;102090.03;5072425;28;20570;-74
2022/03/09 01:32:03;;;;;;;16.05;8.25;;;;;;;0.28;63.91;102085.25;5072001;28;20046;-74
2022/03/09 01:34:29;;;;;;;15.35;7.20;;;;;;;0.28;63.77;102087.88;5072593;28;20071;-74
2022/03/09 01:36:54;;;;;;;16.20;6.90;;;;;;;0.19;63.86;102078.84;5072651;28;20036;-74
2022/03/09 01:39:20;;;;;;;17.75;8.10;;;;;;;0.24;63.63;102094.25;5072552;28;20021;-74
2022/03/09 01:41:46;;;;;;;17.42;7.80;;;;;;;0.25;63.70;102095.97;5072352;28;20056;-74
2022/03/09 01:44:12;;;;;;;17.42;6.70;;;;;;;0.22;63.82;102089.97;5072560;28;20369;-74
2022/03/09 01:46:39;;;;;;;16.50;6.97;;;;;;;0.17;63.52;102084.16;5072116;28;20111;-75
2022/03/09 01:49:05;;;;;;;21.73;7.70;;;;;;;0.17;63.81;102089.41;5072497;28;20379;-75
2022/03/09 01:51:33;;;;;;;17.88;7.75;;;;;;;0.14;64.44;102080.91;5072321;28;20395;-75
2022/03/09 01:53:58;;;;;;;20.15;9.00;;;;;;;0.10;64.15;102072.38;5072194;28;20032;-75
2022/03/09 01:56:24;;;;;;;17.83;8.25;;;;;;;0.12;64.20;102088.88;5070416;28;20093;-75
2022/03/09 01:58:50;;;;;;;20.05;8.48;;;;;;;0.09;63.92;102081.19;5072162;28;20069;-74
2022/03/09 02:01:15;;;;;;;20.73;8.02;;;;;;;0.07;63.77;102083.06;5071981;28;20112;-74
2022/03/09 02:03:41;;;;;;;18.45;7.60;;;;;;;0.07;64.30;102077.00;5070700;28;20609;-74
2022/03/09 02:06:06;;;;;;;20.42;8.57;;;;;;;0.05;63.78;102077.06;5072192;28;20032;-74
2022/03/09 02:11:15;;;;;;;19.33;9.73;;;;;;;0.04;63.74;102077.19;5072216;28;20051;-74
2022/03/09 02:13:41;;;;;;;19.02;7.65;;;;;;;0.03;64.14;102075.50;5070644;28;20052;-74
2022/03/09 02:16:06;;;;;;;16.27;7.68;;;;;;;0.03;63.82;102065.88;5071549;28;20439;-74
2022/03/09 02:18:33;;;;;;;16.25;7.50;;;;;;;0.06;63.57;102073.53;5070922;28;20067;-74
2022/03/09 02:21:02;;;;;;;17.23;8.57;;;;;;;0.10;62.97;102072.38;5071540;28;20123;-74
2022/03/09 02:23:27;;;;;;;19.73;9.05;;;;;;;0.17;63.24;102075.47;5071804;28;20025;-74
2022/03/09 02:25:53;;;;;;;21.92;8.00;;;;;;;0.19;62.90;102068.34;5071524;28;20037;-74
2022/03/09 02:28:18;;;;;;;20.30;8.40;;;;;;;0.29;62.64;102077.31;5071595;28;20046;-74
2022/03/09 02:30:43;;;;;;;17.92;7.47;;;;;;;0.27;62.83;102065.22;5071566;28;20039;-74
2022/03/09 02:33:09;;;;;;;16.33;6.70;;;;;;;0.34;62.28;102069.97;5071539;28;20028;-74
2022/03/09 02:35:34;;;;;;;19.05;8.43;;;;;;;0.41;61.85;102073.03;5070326;28;20159;-74
2022/03/09 02:38:00;;;;;;;13.43;6.63;;;;;;;0.38;62.51;102065.38;5071471;28;20383;-74
2022/03/09 02:40:25;;;;;;;17.95;8.35;;;;;;;0.36;62.65;102075.94;5071321;28;20234;-74
2022/03/09 02:42:51;;;;;;;17.67;7.55;;;;;;;0.29;63.86;102074.69;5070212;28;20036;-74
2022/03/09 02:45:17;;;;;;;16.40;7.75;;;;;;;0.17;63.65;102065.81;5071350;28;20033;-74
2022/03/09 02:47:44;;;;;;;19.35;8.15;;;;;;;0.12;63.59;102067.88;5069965;28;20139;-74
2022/03/09 02:50:11;;;;;;;20.88;9.30;;;;;;;0.09;63.57;102069.88;5071136;28;20024;-74
2022/03/09 02:52:38;;;;;;;20.40;8.48;;;;;;;0.08;62.97;102061.16;5071314;28;20074;-74
2022/03/09 02:55:05;;;;;;;17.23;8.00;;;;;;;0.13;63.46;102061.72;5070041;28;20547;-75
2022/03/09 02:57:31;;;;;;;24.15;9.90;;;;;;;0.07;63.46;102042.91;5070534;28;20424;-73
2022/03/09 02:59:56;;;;;;;15.23;7.03;;;;;;;0.11;63.32;102055.72;5070512;28;20029;-73
2022/03/09 03:02:21;;;;;;;20.08;8.27;;;;;;;0.10;63.28;102055.81;5069589;28;20532;-73
2022/03/09 03:04:47;;;;;;;17.02;8.07;;;;;;;0.10;63.00;102050.56;5071081;28;20028;-74
2022/03/09 03:07:12;;;;;;;17.40;7.20;;;;;;;0.13;63.33;102056.47;5070911;28;20029;-74
2022/03/09 03:09:37;;;;;;;19.50;8.23;;;;;;;0.08;63.15;102044.56;5070926;28;20035;-74
2022/03/09 03:12:03;;;;;;;20.30;9.52;;;;;;;0.11;63.34;102057.50;5070766;28;20056;-74
2022/03/09 03:14:28;;;;;;;19.55;9.35;;;;;;;0.06;63.55;102054.34;5070706;28;20585;-73
2022/03/09 03:16:54;;;;;;;15.63;7.47;;;;;;;-0.01;64.35;102059.97;5070431;28;20064;-74
2022/03/09 03:19:19;;;;;;;18.05;8.25;;;;;;;-0.06;64.19;102066.44;5070535;28;20107;-74
2022/03/09 03:21:44;;;;;;;19.08;9.30;;;;;;;-0.12;64.34;102062.44;5070679;28;20041;-74
2022/03/09 03:24:10;;;;;;;17.10;8.40;;;;;;;-0.22;64.76;102064.78;5070278;28;20683;-73
2022/03/09 03:26:35;;;;;;;18.60;9.23;;;;;;;-0.23;65.17;102062.28;5070790;28;20426;-74
2022/03/09 03:29:02;;;;;;;18.40;7.75;;;;;;;-0.29;65.76;102065.25;5069946;28;20043;-74
2022/03/09 03:31:29;;;;;;;17.73;7.32;;;;;;;-0.40;65.51;102059.84;5070249;28;20499;-74
2022/03/09 03:33:55;;;;;;;25.55;8.90;;;;;;;-0.39;65.37;102061.53;5070554;28;20032;-74
2022/03/09 03:36:20;;;;;;;16.85;8.15;;;;;;;-0.37;64.38;102064.91;5070371;28;20115;-74
2022/03/09 03:38:46;;;;;;;16.48;6.80;;;;;;;-0.29;64.44;102065.25;5068967;28;20119;-74
2022/03/09 03:41:11;;;;;;;16.63;7.88;;;;;;;-0.23;63.97;102060.50;5070030;28;20052;-73
2022/03/09 03:43:37;;;;;;;19.60;8.13;;;;;;;-0.15;64.00;102057.38;5070254;28;20036;-74
2022/03/09 03:46:02;;;;;;;16.35;8.40;;;;;;;-0.23;63.33;102043.94;5068614;28;20028;-74
2022/03/09 03:48:27;;;;;;;16.27;8.40;;;;;;;-0.13;63.73;102052.91;5070013;28;20025;-74
2022/03/09 03:50:53;;;;;;;18.25;8.35;;;;;;;-0.17;64.58;102059.25;5069808;28;20059;-74
2022/03/09 03:53:18;;;;;;;20.85;9.63;;;;;;;-0.27;65.99;102056.38;5070019;28;20070;-74
2022/03/09 03:55:44;;;;;;;16.13;7.70;;;;;;;-0.45;65.63;102052.28;5069970;28;20062;-74
2022/03/09 03:58:10;;;;;;;22.00;8.98;;;;;;;-0.59;65.97;102055.75;5068468;28;20082;-74
2022/03/09 04:00:36;;;;;;;16.35;7.38;;;;;;;-0.73;66.25;102051.38;5069689;28;20032;-74
2022/03/09 04:03:01;;;;;;;18.88;7.30;;;;;;;-0.81;66.78;102057.97;5069558;28;20612;-74
2022/03/09 04:05:28;;;;;;;18.25;7.82;;;;;;;-0.95;66.81;102057.03;5070059;28;20434;-74
2022/03/09 04:07:54;;;;;;;18.40;7.32;;;;;;;-0.97;67.21;102060.69;5069403;28;20040;-74
2022/03/09 04:10:19;;;;;;;20.77;10.10;;;;;;;-1.00;68.01;102055.63;5069819;28;20029;-74
2022/03/09 04:12:44;;;;;;;17.52;7.85;;;;;;;-1.01;67.98;102056.59;5069673;28;20032;-74
2022/03/09 04:15:10;;;;;;;17.88;7.95;;;;;;;-1.02;67.93;102054.88;5070005;28;20052;-74
2022/03/09 04:17:43;;;;;;;17.35;8.40;;;;;;;-0.93;66.65;102060.41;5069784;28;20056;-73
2022/03/09 04:20:10;;;;;;;18.35;8.25;;;;;;;-0.82;66.75;102056.31;5069293;28;20036;-74
2022/03/09 04:22:35;;;;;;;20.60;8.50;;;;;;;-0.80;67.31;102063.16;5069647;28;20040;-74
2022/03/09 04:25:02;;;;;;;20.75;8.85;;;;;;;-0.86;67.46;102058.28;5069211;28;20078;-74
2022/03/09 04:27:28;;;;;;;19.83;7.35;;;;;;;-0.92;66.72;102062.13;5069410;28;20025;-74
2022/03/09 04:29:53;;;;;;;15.77;6.28;;;;;;;-0.91;66.77;102053.31;5069665;28;20054;-74
2022/03/09 04:32:19;;;;;;;18.60;8.98;;;;;;;-0.85;66.10;102059.97;5069586;28;20064;-74
2022/03/09 04:34:44;;;;;;;19.58;8.40;;;;;;;-0.78;65.82;102056.03;5069515;28;20086;-74
2022/03/09 04:37:09;;;;;;;17.17;7.53;;;;;;;-0.73;65.71;102053.16;5068224;28;20082;-74
2022/03/09 04:39:35;;;;;;;13.73;7.07;;;;;;;-0.74;65.94;102051.44;5069156;28;20044;-74
2022/03/09 04:42:00;;;;;;;16.05;8.15;;;;;;;-0.79;66.47;102054.34;5074591;28;20059;-74
2022/03/09 04:44:25;;;;;;;14.82;6.93;;;;;;;-0.91;65.95;102057.72;5076137;28;20480;-74
2022/03/09 04:46:51;;;;;;;16.33;8.38;;;;;;;-1.09;66.70;102051.81;5074675;28;20036;-74
2022/03/09 04:49:16;;;;;;;15.40;6.90;;;;;;;-1.16;66.87;102066.19;5058087;28;20118;-74
2022/03/09 04:51:41;;;;;;;16.23;7.70;;;;;;;-1.27;67.19;102052.88;5075996;28;20047;-74
2022/03/09 04:54:07;;;;;;;17.42;7.22;;;;;;;-1.28;67.62;102070.38;5076055;28;20078;-74
2022/03/09 04:56:32;;;;;;;16.30;7.57;;;;;;;-1.42;67.42;102060.69;5076051;28;20085;-74
2022/03/09 04:58:58;;;;;;;15.57;6.72;;;;;;;-1.49;67.92;102068.97;5075834;28;20564;-74
2022/03/09 05:01:23;;;;;;;15.07;6.63;;;;;;;-1.61;68.31;102065.31;5075678;28;20036;-74
2022/03/09 05:03:48;;;;;;;17.13;6.95;;;;;;;-1.59;68.55;102069.53;5075730;28;20029;-74
2022/03/09 05:06:14;;;;;;;18.35;8.65;;;;;;;-1.59;68.29;102071.28;5075859;28;20094;-74
2022/03/09 05:08:40;;;;;;;19.83;9.10;;;;;;;-1.61;69.69;102066.13;5075841;28;20028;-74
2022/03/09 05:11:05;;;;;;;20.63;9.93;;;;;;;-1.69;69.72;102054.44;5075571;28;20040;-74
2022/03/09 05:13:31;;;;;;;18.42;9.00;;;;;;;-1.68;69.37;102062.19;5075837;28;20489;-74
2022/03/09 05:15:56;;;;;;;20.40;8.32;;;;;;;-1.71;70.03;102058.91;5075653;28;20060;-74
2022/03/09 05:18:22;;;;;;;16.38;7.85;;;;;;;-1.75;70.02;102060.03;5075820;28;20020;-74
2022/03/09 05:20:47;;;;;;;18.73;7.75;;;;;;;-1.73;70.81;102064.22;5074208;28;20535;-74
2022/03/09 05:23:13;;;;;;;19.55;8.43;;;;;;;-1.73;70.91;102060.75;5075604;28;20063;-74
2022/03/09 05:25:38;;;;;;;19.63;9.88;;;;;;;-1.76;70.30;102064.38;5075607;28;20161;-74
2022/03/09 05:28:04;;;;;;;17.80;7.72;;;;;;;-1.76;70.20;102061.78;5075553;28;20434;-74
2022/03/09 05:30:29;;;;;;;20.00;8.30;;;;;;;-1.77;70.49;102060.94;5075327;28;20924;-74
2022/03/09 05:32:55;;;;;;;18.00;9.32;;;;;;;-1.75;69.99;102070.50;5075579;28;20093;-74
2022/03/09 05:35:21;;;;;;;19.40;8.07;;;;;;;-1.82;70.71;102057.75;5076124;28;20379;-74
2022/03/09 05:37:46;;;;;;;19.45;9.00;;;;;;;-1.81;70.10;102064.69;5075442;28;20034;-74
2022/03/09 05:40:13;;;;;;;17.88;7.75;;;;;;;-1.74;70.95;102070.38;5075392;28;20076;-74
2022/03/09 05:42:38;;;;;;;19.90;8.95;;;;;;;-1.74;70.07;102072.16;5074291;28;20450;-74
2022/03/09 05:45:05;;;;;;;15.68;7.13;;;;;;;-1.71;70.20;102077.22;5075545;28;20032;-74
2022/03/09 05:47:31;;;;;;;15.63;8.05;;;;;;;-1.70;70.15;102077.16;5075445;28;20052;-74
2022/03/09 05:49:57;;;;;;;20.67;7.30;;;;;;;-1.73;69.72;102074.69;5075449;28;20058;-74
2022/03/09 05:52:22;;;;;;;18.00;7.65;;;;;;;-1.73;70.03;102079.06;5071512;28;20044;-74
2022/03/09 05:54:47;;;;;;;17.05;8.25;;;;;;;-1.71;70.57;102082.44;5071046;28;20111;-74
2022/03/09 05:57:17;;;;;;;18.80;8.68;;;;;;;-1.71;70.02;102088.50;5071939;28;20060;-74
2022/03/09 05:59:42;;;;;;;19.60;9.20;;;;;;;-1.73;70.40;102090.38;5072025;28;20028;-74
2022/03/09 06:02:08;;;;;;;20.80;9.77;;;;;;;-1.85;71.12;102073.59;5070728;28;20039;-74
2022/03/09 06:04:33;;;;;;;19.40;7.35;;;;;;;-1.76;70.47;102093.16;5071742;28;20562;-75
2022/03/09 06:07:01;;;;;;;19.55;9.40;;;;;;;-1.79;70.62;102090.72;5071949;28;20115;-74
2022/03/09 06:09:27;;;;;;;19.08;9.45;;;;;;;-1.73;71.05;102097.38;5071871;28;20417;-74
2022/03/09 06:11:53;;;;;;;15.10;6.95;;;;;;;-1.72;70.57;102101.69;5071839;28;20111;-75
2022/03/09 06:14:18;;;;;;;20.90;7.68;;;;;;;-1.75;70.61;102100.09;5071932;28;20553;-74
2022/03/09 06:16:44;;;;;;;19.63;7.90;;;;;;;-1.72;70.09;102102.53;5070490;28;20024;-74
2022/03/09 06:19:10;;;;;;;16.38;7.45;;;;;;;-1.70;69.81;102105.03;5071562;28;20111;-74
2022/03/09 06:21:36;;;;;;;19.60;8.65;;;;;;;-1.67;69.97;102107.50;5071749;28;20127;-74
2022/03/09 06:24:02;;;;;;;17.38;7.47;;;;;;;-1.67;69.78;102107.50;5071208;28;20967;-74
2022/03/09 06:26:28;;;;;;;24.38;8.52;;;;;;;-1.62;69.57;102111.56;5072073;28;20043;-75
2022/03/09 06:28:53;;;;;;;18.30;8.55;;;;;;;-1.60;70.12;102119.28;5071133;28;20025;-74
2022/03/09 06:31:19;;;;;;;19.58;7.82;;;;;;;-1.59;70.54;102115.75;5070177;28;20032;-75
2022/03/09 06:33:44;;;;;;;19.15;9.00;;;;;;;-1.56;69.90;102112.97;5071450;28;20396;-75
2022/03/09 06:36:09;;;;;;;14.70;7.40;;;;;;;-1.58;69.55;102117.44;5071516;28;20977;-74
2022/03/09 06:38:35;;;;;;;20.08;8.18;;;;;;;-1.55;69.74;102110.28;5070073;28;20072;-74
2022/03/09 06:41:01;;;;;;;23.52;9.27;;;;;;;-1.47;70.11;102122.91;5071142;28;20115;-75
2022/03/09 06:43:26;;;;;;;19.70;8.20;;;;;;;-1.43;69.78;102127.03;5069989;28;20768;-74
2022/03/09 06:45:51;;;;;;;16.38;7.45;;;;;;;-1.38;69.50;102132.84;5071259;28;20392;-75
2022/03/09 06:48:17;;;;;;;18.95;9.07;;;;;;;-1.36;70.20;102128.38;5071243;28;20027;-74
2022/03/09 06:50:43;;;;;;;19.08;8.10;;;;;;;-1.10;70.52;102131.28;5071187;28;20487;-74
2022/03/09 06:53:09;;;;;;;19.25;7.97;;;;;;;-0.76;69.66;102132.75;5069902;28;20139;-74
2022/03/09 06:55:34;;;;;;;22.42;7.47;;;;;;;-0.51;69.07;102132.09;5070031;28;20131;-74
2022/03/09 06:58:00;;;;;;;22.58;8.32;;;;;;;-0.18;67.86;102143.22;5070735;28;20063;-75
2022/03/09 07:00:25;;;;;;;20.50;8.93;;;;;;;0.05;66.61;102149.69;5052951;28;20459;-74
2022/03/09 07:02:50;;;;;;;16.35;7.28;;;;;;;0.15;66.50;102153.41;5070230;28;20028;-74
2022/03/09 07:05:16;;;;;;;21.52;8.13;;;;;;;0.18;65.94;102155.84;5070771;28;20067;-74
2022/03/09 07:07:41;;;;;;;16.33;7.72;;;;;;;0.27;65.55;102155.28;5070559;28;20017;-74
2022/03/09 07:10:11;;;;;;;16.80;7.90;;;;;;;0.35;65.19;102160.88;5070711;28;20078;-74
2022/03/09 07:12:38;;;;;;;15.68;7.10;;;;;;;0.39;65.06;102156.25;5070736;28;20031;-74
2022/03/09 07:15:04;;;;;;;14.32;6.13;;;;;;;0.50;64.74;102158.19;5070239;28;20115;-74
2022/03/09 07:17:29;;;;;;;21.40;9.10;;;;;;;0.62;64.39;102165.28;5070677;28;20476;-74
2022/03/09 07:19:54;;;;;;;27.83;13.65;;;;;;;0.65;64.41;102160.69;5069339;28;20078;-74
2022/03/09 07:22:20;;;;;;;21.35;9.73;;;;;;;0.91;63.36;102171.25;5070547;28;20097;-74
2022/03/09 07:24:45;;;;;;;23.75;10.30;;;;;;;1.00;62.78;102164.56;5070305;28;20028;-74
2022/03/09 07:27:10;;;;;;;17.90;8.20;;;;;;;1.03;63.40;102172.25;5070165;28;20025;-74
2022/03/09 07:29:36;;;;;;;24.52;12.35;;;;;;;1.07;63.76;102169.31;5069159;28;20123;-74
2022/03/09 07:32:01;;;;;;;19.60;9.55;;;;;;;1.18;62.75;102171.22;5069871;28;20029;-74
2022/03/09 07:34:27;;;;;;;19.45;9.63;;;;;;;1.25;62.27;102164.59;5070271;28;20032;-75
2022/03/09 07:36:58;;;;;;;17.92;7.78;;;;;;;1.30;62.06;102161.66;5070336;28;20028;-74
2022/03/09 07:39:27;;;;;;;18.67;7.05;;;;;;;1.31;62.29;102163.34;5070022;28;20021;-75
2022/03/09 07:41:54;;;;;;;47.22;25.85;;;;;;;1.25;64.13;102145.34;5068697;28;20083;-74
2022/03/09 07:44:20;;;;;;;39.50;21.67;;;;;;;1.46;63.41;102148.31;5069933;28;20028;-74
2022/03/09 07:46:45;;;;;;;40.40;22.75;;;;;;;1.57;62.84;102160.72;5052194;28;20047;-74
2022/03/09 07:49:11;;;;;;;24.67;8.20;;;;;;;1.77;61.58;102159.34;5071194;28;20020;-74
2022/03/09 07:51:36;;;;;;;18.73;8.30;;;;;;;2.20;60.98;102162.41;5069779;28;20119;-74
2022/03/09 07:54:02;;;;;;;16.17;7.57;;;;;;;2.44;60.00;102162.47;5070199;28;20028;-74
2022/03/09 07:56:27;;;;;;;22.13;8.93;;;;;;;2.67;60.74;102154.66;5069572;28;20028;-74
2022/03/09 07:58:53;;;;;;;16.90;7.35;;;;;;;3.28;58.39;102153.56;5069897;28;20128;-75
2022/03/09 08:01:18;;;;;;;17.50;6.50;;;;;;;4.24;55.67;102154.88;5069893;28;20032;-75
2022/03/09 08:03:44;;;;;;;13.82;6.68;;;;;;;4.83;54.37;102161.53;5068623;28;20033;-74
2022/03/09 08:06:10;;;;;;;21.80;9.13;;;;;;;5.10;54.51;102145.19;5069667;28;20032;-75
2022/03/09 08:08:35;;;;;;;17.02;7.88;;;;;;;5.42;53.04;102158.34;5069097;28;20063;-75
2022/03/09 08:11:01;;;;;;;23.05;9.77;;;;;;;5.71;53.20;102157.63;5069476;28;20036;-75
2022/03/09 08:13:26;;;;;;;21.17;8.65;;;;;;;6.31;55.50;102157.72;5069343;28;20081;-73
2022/03/09 08:15:51;;;;;;;22.23;10.02;;;;;;;6.59;52.31;102167.53;5069164;28;20596;-74
2022/03/09 08:18:17;;;;;;;34.65;12.98;;;;;;;6.63;53.03;102162.81;5068050;28;20075;-74
2022/03/09 08:20:42;;;;;;;17.33;7.40;;;;;;;6.70;51.89;102161.25;5069679;28;20021;-74
2022/03/09 08:23:08;;;;;;;17.42;7.63;;;;;;;6.78;52.84;102158.75;5069687;28;20464;-74
2022/03/09 08:25:34;;;;;;;14.80;6.78;;;;;;;6.78;51.04;102173.84;5068181;28;20044;-76
2022/03/09 08:28:01;;;;;;;17.15;7.25;;;;;;;6.73;51.02;102168.09;5068568;28;20503;-75
2022/03/09 08:30:27;;;;;;;13.73;5.95;;;;;;;6.27;51.47;102167.78;5069218;28;20129;-74
2022/03/09 08:32:52;;;;;;;15.82;7.32;;;;;;;5.85;51.90;102180.28;5067776;28;20528;-74
2022/03/09 08:35:18;;;;;;;14.27;7.30;;;;;;;5.54;52.97;102185.56;5069100;28;20032;-74
2022/03/09 08:37:43;;;;;;;12.50;6.07;;;;;;;5.33;54.48;102184.75;5069054;28;20060;-74
2022/03/09 08:40:09;;;;;;;16.52;6.35;;;;;;;5.16;53.59;102179.06;5069264;28;20060;-75
2022/03/09 08:42:34;;;;;;;19.23;7.90;;;;;;;5.05;54.12;102187.88;5069198;28;20039;-76
2022/03/09 08:45:01;;;;;;;16.40;7.38;;;;;;;5.05;53.61;102184.38;5064634;28;20024;-75
2022/03/09 08:47:26;;;;;;;14.07;6.80;;;;;;;5.05;54.09;102187.03;5063085;28;21383;-79
2022/03/09 08:49:52;;;;;;;16.30;6.93;;;;;;;5.05;52.71;102184.38;5063099;28;20119;-78
2022/03/09 08:52:17;;;;;;;17.27;8.30;;;;;;;5.07;53.21;102184.28;5066427;28;20036;-76
2022/03/09 08:54:43;;;;;;;15.60;6.80;;;;;;;5.12;54.00;102177.63;5069206;28;20059;-76
2022/03/09 08:57:08;;;;;;;19.13;8.20;;;;;;;5.13;54.04;102174.00;5068831;28;20037;-76
2022/03/09 08:59:34;;;;;;;17.73;7.93;;;;;;;5.33;53.49;102184.75;5069024;28;20040;-76
2022/03/09 09:01:59;;;;;;;17.25;7.07;;;;;;;5.41;53.31;102179.63;5068844;28;20028;-76
2022/03/09 09:04:25;;;;;;;16.08;7.18;;;;;;;5.48;52.14;102179.00;5069295;28;20062;-76
2022/03/09 09:06:50;;;;;;;15.90;7.40;;;;;;;5.61;53.73;102176.13;5069334;28;20039;-76
2022/03/09 09:09:17;;;;;;;21.98;7.75;;;;;;;5.74;52.33;102173.28;5068767;28;20039;-76
2022/03/09 09:11:43;;;;;;;15.23;6.45;;;;;;;5.82;53.77;102168.16;5068636;28;20037;-76
2022/03/09 09:14:09;;;;;;;17.02;7.70;;;;;;;5.95;50.60;102170.59;5068805;28;20476;-76
2022/03/09 09:16:34;;;;;;;18.20;7.05;;;;;;;6.03;51.81;102168.13;5069242;28;20032;-76
2022/03/09 09:19:00;;;;;;;15.82;6.75;;;;;;;6.12;50.29;102177.91;5067679;28;20124;-76
2022/03/09 09:21:25;;;;;;;16.70;6.90;;;;;;;6.24;51.21;102172.50;5068954;28;20105;-76
2022/03/09 09:23:50;;;;;;;17.35;6.35;;;;;;;6.33;52.21;102175.16;5069029;28;20025;-76
2022/03/09 09:26:18;;;;;;;15.40;7.22;;;;;;;6.41;51.22;102171.00;5068747;28;20070;-74
2022/03/09 09:28:44;;;;;;;16.88;6.90;;;;;;;6.51;50.74;102172.69;5070828;28;20050;-76
2022/03/09 09:31:09;;;;;;;16.10;7.72;;;;;;;6.62;48.56;102182.31;5072550;28;20024;-76
2022/03/09 09:33:34;;;;;;;20.33;8.30;;;;;;;6.71;48.54;102172.72;5073320;28;20032;-76
2022/03/09 09:36:00;;;;;;;19.77;7.22;;;;;;;6.71;46.71;102162.97;5072442;28;20056;-76
2022/03/09 09:38:27;;;;;;;19.35;8.45;;;;;;;6.82;47.44;102177.06;5071785;28;20024;-77
2022/03/09 09:40:55;;;;;;;16.77;7.38;;;;;;;6.89;47.13;102181.66;5072020;28;20432;-76
2022/03/09 09:43:22;;;;;;;18.85;7.90;;;;;;;6.93;46.68;102168.97;5072153;28;20028;-77
2022/03/09 09:45:47;;;;;;;16.48;7.03;;;;;;;7.05;46.88;102177.59;5072282;28;20085;-79
2022/03/09 09:48:13;;;;;;;19.13;8.60;;;;;;;7.12;47.08;102166.28;5072465;28;20028;-76
2022/03/09 09:50:40;;;;;;;18.92;8.20;;;;;;;7.24;47.35;102175.75;5072014;28;20629;-77
2022/03/09 09:53:08;;;;;;;18.58;8.75;;;;;;;7.34;46.38;102167.78;5072228;28;20038;-77
2022/03/09 09:55:34;;;;;;;20.45;7.95;;;;;;;7.44;47.59;102170.41;5071796;28;20045;-77
2022/03/09 09:58:00;;;;;;;22.05;8.38;;;;;;;7.53;47.12;102166.06;5071813;28;20522;-77
2022/03/09 10:00:26;;;;;;;19.05;9.82;;;;;;;7.59;45.87;102168.97;5072096;28;20040;-77
2022/03/09 10:02:52;;;;;;;19.80;8.52;;;;;;;7.70;46.38;102175.91;5070765;28;20098;-77
2022/03/09 10:05:19;;;;;;;28.23;8.95;;;;;;;7.84;45.24;102164.84;5072042;28;20021;-77
2022/03/09 10:08:03;;;;;;;17.73;8.20;;;;;;;7.98;46.29;102173.31;5071854;28;20039;-76
2022/03/09 10:10:33;;;;;;;21.67;8.10;;;;;;;8.03;44.40;102168.41;5054213;28;20101;-77
2022/03/09 10:13:13;;;;;;;17.35;8.27;;;;;;;8.12;45.32;102164.84;5071430;28;20062;-77
2022/03/09 10:15:39;;;;;;;17.88;8.40;;;;;;;8.24;44.58;102166.31;5071691;28;20028;-76
2022/03/09 10:18:21;;;;;;;20.80;8.30;;;;;;;8.33;45.92;102170.75;5071838;28;20037;-77
2022/03/09 10:20:49;;;;;;;22.38;10.40;;;;;;;8.45;45.40;102171.41;5071741;28;20483;-77
2022/03/09 10:23:17;;;;;;;18.85;8.18;;;;;;;8.54;44.80;102156.34;5071618;28;20047;-76
2022/03/09 10:25:43;;;;;;;19.15;8.77;;;;;;;8.63;44.88;102170.59;5071260;28;20083;-77
2022/03/09 10:28:11;;;;;;;19.23;7.82;;;;;;;8.64;44.22;102153.63;5071774;28;20479;-77
2022/03/09 10:30:41;;;;;;;22.38;8.95;;;;;;;8.70;44.17;102161.84;5071662;28;20468;-76
2022/03/09 10:33:12;;;;;;;21.73;9.27;;;;;;;8.74;45.99;102159.72;5071700;28;20410;-77
2022/03/09 10:35:47;;;;;;;20.70;9.73;;;;;;;8.77;43.74;102144.28;5071494;28;20055;-77
2022/03/09 10:38:15;;;;;;;22.60;9.30;;;;;;;8.87;45.52;102162.81;5071173;28;20077;-77
2022/03/09 10:40:43;;;;;;;19.55;9.27;;;;;;;8.98;42.98;102157.25;5071258;28;20425;-77
2022/03/09 10:43:19;;;;;;;19.75;10.15;;;;;;;9.09;44.83;102153.53;5070252;28;20052;-77
2022/03/09 10:45:59;;;;;;;24.10;9.07;;;;;;;9.17;43.67;102150.09;5053471;28;20029;-77
2022/03/09 10:48:45;;;;;;;18.90;8.52;;;;;;;9.20;43.29;102145.28;5071352;28;20039;-77
2022/03/09 10:51:23;;;;;;;23.77;9.75;;;;;;;9.25;42.97;102131.53;5071492;28;20052;-77
2022/03/09 10:53:48;;;;;;;21.17;10.88;;;;;;;9.34;44.16;102146.53;5071238;28;20036;-76
2022/03/09 10:56:19;;;;;;;23.77;11.38;;;;;;;9.34;43.69;102132.41;5071304;28;20376;-77
2022/03/09 10:58:45;;;;;;;21.45;12.75;;;;;;;9.37;43.35;102140.91;5070903;28;20036;-77
2022/03/09 11:01:16;;;;;;;24.17;11.02;;;;;;;9.53;44.20;102139.34;5069804;28;20041;-77
2022/03/09 11:03:43;;;;;;;24.40;10.20;;;;;;;9.64;44.71;102137.25;5070719;28;20020;-77
2022/03/09 11:06:10;;;;;;;23.23;10.48;;;;;;;9.72;42.98;102140.94;5070967;28;20032;-77
2022/03/09 11:08:36;;;;;;;22.52;10.80;;;;;;;9.82;44.22;102134.50;5070822;28;20028;-77
2022/03/09 11:11:04;;;;;;;23.52;11.10;;;;;;;9.94;43.87;102140.38;5070640;28;20033;-77
2022/03/09 11:13:33;;;;;;;20.25;9.43;;;;;;;10.01;41.94;102141.41;5070330;28;20116;-77
2022/03/09 11:15:59;;;;;;;23.73;11.57;;;;;;;9.99;41.71;102124.72;5070629;28;20028;-77
2022/03/09 11:18:28;;;;;;;21.65;10.18;;;;;;;10.10;42.25;102139.59;5070557;28;20024;-77
2022/03/09 11:21:08;;;;;;;25.83;11.70;;;;;;;10.16;41.39;102144.25;5070550;28;20365;-77